Weather History for Cook, MN

Change the Weather History Date:

Thursday, January 23, 2014

  Actual Average Record
Temperature  
Mean Temperature -16 °F -  
Max Temperature 1 °F 16 °F 35 °F (2015)
Min Temperature -31 °F -1 °F -34 °F (2011)
Degree Days  
Heating Degree Days 80    
Moisture  
Dew Point -21 °F    
Average Humidity 70    
Maximum Humidity 83    
Minimum Humidity 59    
Precipitation  
Precipitation 0.00 in - - ()
Sea Level Pressure  
Sea Level Pressure 30.36 in    
Wind  
Wind Speed 4 mph (SW)    
Max Wind Speed 18 mph    
Max Gust Speed 28 mph    
Visibility 10 miles    
Events      
Averages and records for this station are not official NWS values.
T = Trace of Precipitation, MM = Missing Value Source: NWS Daily Summary

Daily Weather History Graph

Daily Weather History Graph

Search for Another Location

Airport:

Trip Planner

Search our weather history database for the weather conditions in past years. The results will help you decide how hot, cold, wet, or windy it might be!

Date:

Astronomy

Jan. 23, 2014 Rise Set
Actual Time 7:48 AM CST 4:57 PM CST
Civil Twilight 7:14 AM CST 5:31 PM CST
Nautical Twilight 6:36 AM CST 6:09 PM CST
Astronomical Twilight 5:59 AM CST 6:46 PM CST
Moon 12:01 AM CST (1/23) 10:49 AM CST (1/23)
Length of Visible Light 10h 17m
Length of Day
9h 09m
Waning Gibbous, 55% of the Moon is Illuminated
Jan 23
Waning Gibbous
Jan 23
Last Quarter
Jan 30
New
Feb 6
First Quarter
Feb 14
Full

Hourly Weather History & Observations

Time (CST) Temp. Windchill Dew Point Humidity Pressure Visibility Wind Dir Wind Speed Gust Speed Precip Events Conditions
12:15 AM -18.4 °F - -23.8 °F 76% 30.44 in 10.0 mi Calm Calm - N/A   Clear
12:35 AM -18.4 °F -28.9 °F -23.8 °F 76% 30.44 in 10.0 mi WNW 3.5 mph - N/A   Clear
12:55 AM -18.4 °F -28.9 °F -23.8 °F 76% 30.44 in 10.0 mi NW 3.5 mph - N/A   Clear
1:15 AM -18.4 °F -28.9 °F -23.8 °F 76% 30.44 in 10.0 mi NW 3.5 mph - N/A   Clear
1:35 AM -18.4 °F - -23.8 °F 76% 30.45 in 10.0 mi Calm Calm - N/A   Clear
1:55 AM -20.2 °F -30.9 °F -25.6 °F 76% 30.46 in 10.0 mi WNW 3.5 mph - N/A   Clear
2:15 AM -20.2 °F - -25.6 °F 76% 30.46 in 10.0 mi Calm Calm - N/A   Clear
2:35 AM -20.2 °F - -25.6 °F 76% 30.48 in 10.0 mi Calm Calm - N/A   Clear
2:55 AM -20.2 °F - -25.6 °F 76% 30.49 in 10.0 mi Calm Calm - N/A   Clear
3:15 AM -20.2 °F - -25.6 °F 76% 30.49 in 10.0 mi Calm Calm - N/A   Clear
3:35 AM -22.0 °F -33.0 °F -27.4 °F 76% 30.50 in 10.0 mi WNW 3.5 mph - N/A   Clear
3:55 AM -23.8 °F -35.0 °F -27.4 °F 83% 30.51 in 10.0 mi WNW 3.5 mph - N/A   Clear
4:15 AM -23.8 °F - -29.2 °F 76% 30.52 in 10.0 mi Calm Calm - N/A   Clear
4:35 AM -25.6 °F - -31.0 °F 76% 30.52 in 10.0 mi Calm Calm - N/A   Clear
4:55 AM -25.6 °F - -31.0 °F 76% 30.52 in 10.0 mi Calm Calm - N/A   Clear
5:15 AM -25.6 °F - -32.8 °F 69% 30.52 in 10.0 mi Calm Calm - N/A   Clear
5:35 AM -27.4 °F - -32.8 °F 75% 30.53 in 10.0 mi Calm Calm - N/A   Clear
5:55 AM -27.4 °F - -32.8 °F 75% 30.54 in 10.0 mi Calm Calm - N/A   Clear
6:15 AM -27.4 °F - -34.6 °F 69% 30.55 in 10.0 mi Calm Calm - N/A   Clear
6:35 AM -29.2 °F - -34.6 °F 75% 30.55 in 10.0 mi Calm Calm - N/A   Clear
6:55 AM -29.2 °F - -34.6 °F 75% 30.55 in 10.0 mi Calm Calm - N/A   Clear
7:15 AM -29.2 °F - -34.6 °F 75% 30.55 in 10.0 mi Calm Calm - N/A   Clear
7:35 AM -29.2 °F -41.2 °F -36.4 °F 68% 30.55 in 10.0 mi West 3.5 mph - N/A   Clear
7:55 AM -31.0 °F -43.3 °F -36.4 °F 75% 30.55 in 10.0 mi West 3.5 mph - N/A   Clear
8:15 AM -31.0 °F -43.3 °F -36.4 °F 75% 30.55 in 10.0 mi West 3.5 mph - N/A   Clear
8:35 AM -29.2 °F - -36.4 °F 68% 30.55 in - Calm Calm - N/A   Clear
8:55 AM -27.4 °F - -34.6 °F 69% 30.55 in - Calm Calm - N/A   Clear
9:14 AM -25.6 °F - -32.8 °F 69% 30.56 in 10.0 mi Calm Calm - N/A   Clear
9:35 AM -25.6 °F - -31.0 °F 76% 30.56 in 10.0 mi Calm Calm - N/A   Clear
9:55 AM -23.8 °F - -29.2 °F 76% 30.56 in 10.0 mi Calm Calm - N/A   Clear
10:14 AM -20.2 °F -33.5 °F -27.4 °F 69% 30.55 in 10.0 mi West 4.6 mph - N/A   Clear
10:35 AM -20.2 °F -33.5 °F -25.6 °F 76% 30.55 in 10.0 mi West 4.6 mph - N/A   Clear
10:55 AM -18.4 °F -31.4 °F -23.8 °F 76% 30.55 in 10.0 mi West 4.6 mph - N/A   Clear
11:15 AM -16.6 °F -26.8 °F -22.0 °F 76% 30.54 in 10.0 mi West 3.5 mph - N/A   Clear
11:35 AM -14.8 °F -27.2 °F -20.2 °F 77% 30.53 in 10.0 mi West 4.6 mph - N/A   Clear
11:54 AM -14.8 °F -29.1 °F -20.2 °F 77% 30.51 in 10.0 mi West 5.8 mph - N/A   Clear
12:15 PM -13.0 °F -28.6 °F -18.4 °F 77% 30.49 in 10.0 mi West 6.9 mph - N/A   Clear
12:35 PM -11.2 °F -27.8 °F -18.4 °F 70% 30.49 in 10.0 mi West 8.1 mph - N/A   Clear
12:55 PM -9.4 °F -18.6 °F -18.4 °F 65% 30.48 in 10.0 mi WSW 3.5 mph - N/A   Clear
1:14 PM -9.4 °F -22.7 °F -18.4 °F 65% 30.47 in 10.0 mi West 5.8 mph - N/A   Clear
1:35 PM -7.6 °F -22.1 °F -18.4 °F 59% 30.45 in 10.0 mi SW 6.9 mph - N/A   Clear
1:55 PM -7.6 °F -20.6 °F -16.6 °F 65% 30.43 in 10.0 mi SW 5.8 mph - N/A   Clear
2:15 PM -5.8 °F -19.9 °F -16.6 °F 60% 30.43 in 10.0 mi WSW 6.9 mph - N/A   Clear
2:35 PM -5.8 °F -21.2 °F -16.6 °F 60% 30.41 in 10.0 mi WSW 8.1 mph - N/A   Clear
2:54 PM -5.8 °F -21.2 °F -14.8 °F 65% 30.41 in 10.0 mi WSW 8.1 mph - N/A   Clear
3:15 PM -4.0 °F -17.8 °F -14.8 °F 60% 30.40 in 10.0 mi SW 6.9 mph - N/A   Clear
3:34 PM -4.0 °F -17.8 °F -14.8 °F 60% 30.39 in 10.0 mi SW 6.9 mph - N/A   Clear
3:55 PM -4.0 °F -17.8 °F -13.0 °F 65% 30.37 in 10.0 mi SW 6.9 mph - N/A   Clear
4:15 PM -4.0 °F -17.8 °F -14.8 °F 60% 30.35 in 10.0 mi SW 6.9 mph - N/A   Clear
4:35 PM -5.8 °F -19.9 °F -14.8 °F 65% 30.33 in 10.0 mi SSW 6.9 mph - N/A   Clear
4:55 PM -5.8 °F -22.4 °F -14.8 °F 65% 30.31 in 10.0 mi SSW 9.2 mph 16.1 mph N/A   Clear
5:15 PM -5.8 °F -19.9 °F -14.8 °F 65% 30.30 in 10.0 mi SSW 6.9 mph - N/A   Clear
5:35 PM -5.8 °F -19.9 °F -14.8 °F 65% 30.28 in 10.0 mi SSW 6.9 mph - N/A   Clear
5:55 PM -5.8 °F -22.4 °F -14.8 °F 65% 30.25 in 10.0 mi SSW 9.2 mph - N/A   Clear
6:15 PM -5.8 °F -18.4 °F -14.8 °F 65% 30.23 in 10.0 mi SSW 5.8 mph - N/A   Clear
6:35 PM -5.8 °F -19.9 °F -14.8 °F 65% 30.21 in 10.0 mi SSW 6.9 mph - N/A   Clear
6:55 PM -5.8 °F -22.4 °F -13.0 °F 71% 30.18 in 10.0 mi SSW 9.2 mph - N/A   Clear
7:14 PM -5.8 °F -22.4 °F -13.0 °F 71% 30.15 in 10.0 mi South 9.2 mph - N/A   Clear
7:35 PM -5.8 °F -21.2 °F -13.0 °F 71% 30.14 in 10.0 mi South 8.1 mph - N/A   Clear
7:55 PM -5.8 °F -22.4 °F -13.0 °F 71% 30.10 in 10.0 mi South 9.2 mph 16.1 mph N/A   Clear
8:14 PM -5.8 °F -23.4 °F -13.0 °F 71% 30.07 in 10.0 mi South 10.4 mph - N/A   Scattered Clouds
8:35 PM -4.0 °F -21.2 °F -13.0 °F 65% 30.04 in 10.0 mi SSW 10.4 mph 18.4 mph N/A   Scattered Clouds
8:55 PM -2.2 °F -19.9 °F -11.2 °F 66% 30.02 in 10.0 mi SSW 11.5 mph 20.7 mph N/A   Scattered Clouds
9:15 PM -2.2 °F -19.9 °F -11.2 °F 66% 30.00 in 10.0 mi SSW 11.5 mph 18.4 mph N/A   Mostly Cloudy
9:35 PM -2.2 °F -18.9 °F -11.2 °F 66% 29.97 in 10.0 mi SSW 10.4 mph 17.3 mph N/A   Overcast
9:55 PM -0.4 °F -19.2 °F -11.2 °F 60% 29.94 in 10.0 mi SSW 13.8 mph 23.0 mph N/A   Overcast
10:14 PM -0.4 °F -19.2 °F -11.2 °F 60% 29.92 in 10.0 mi SSW 13.8 mph 20.7 mph N/A   Overcast
10:35 PM -0.4 °F -21.7 °F -11.2 °F 60% 29.89 in 4.0 mi SSW 18.4 mph 27.6 mph N/A   Haze
10:55 PM -0.4 °F -19.2 °F -9.4 °F 66% 29.86 in 7.0 mi SSW 13.8 mph 23.0 mph N/A   Overcast
11:14 PM -0.4 °F -19.9 °F -9.4 °F 66% 29.83 in 7.0 mi SSW 15.0 mph 24.2 mph N/A   Overcast
11:35 PM -0.4 °F -20.5 °F -9.4 °F 66% 29.81 in 10.0 mi SSW 16.1 mph 21.9 mph N/A   Overcast
11:54 PM 1.4 °F -18.8 °F -7.6 °F 66% 29.79 in 7.0 mi SSW 17.3 mph 26.5 mph N/A   Overcast